Time;durP1;ratioP1;P1;durP2;ratioP2;P2;SDS_P1;SDS_P2;PMS_P1;PMS_P2;Temp;Humidity;BMP_temperature;BMP_pressure;BME280_temperature;BME280_humidity;BME280_pressure;Samples;Min_cycle;Max_cycle;Signal;HPM_P1;HPM_P2
2022/07/15 00:01:37;;;;;;;5.93;1.60;;;;;;;17.96;49.58;102344.97;5206138;28;20426;-49
2022/07/15 00:04:09;;;;;;;10.75;1.65;;;;;;;17.77;49.62;102314.00;5215228;28;20485;-48
2022/07/15 00:06:43;;;;;;;8.53;1.80;;;;;;;17.82;49.63;102330.41;5221079;28;20772;-49
2022/07/15 00:09:16;;;;;;;6.75;2.20;;;;;;;17.84;49.81;102344.44;5218880;28;20537;-46
2022/07/15 00:11:48;;;;;;;8.82;2.45;;;;;;;17.78;49.75;102333.56;5218049;28;20451;-48
2022/07/15 00:14:21;;;;;;;5.88;1.85;;;;;;;17.80;49.89;102343.06;5223308;28;20557;-48
2022/07/15 00:16:53;;;;;;;7.18;1.88;;;;;;;17.77;49.92;102347.88;5221157;28;20867;-44
2022/07/15 00:19:25;;;;;;;6.07;1.88;;;;;;;17.77;49.97;102347.88;5217560;28;20714;-46
2022/07/15 00:21:59;;;;;;;7.65;1.77;;;;;;;17.64;49.95;102333.13;5219438;28;20429;-45
2022/07/15 00:24:31;;;;;;;10.67;2.27;;;;;;;17.71;50.08;102349.34;5219967;28;20520;-49
2022/07/15 00:27:05;;;;;;;9.63;1.80;;;;;;;17.65;50.05;102340.16;5210867;28;20500;-43
2022/07/15 00:29:37;;;;;;;12.38;2.70;;;;;;;17.56;50.07;102337.59;5220047;28;20422;-46
2022/07/15 00:32:10;;;;;;;7.35;1.58;;;;;;;17.45;50.17;102323.50;5217520;28;20411;-49
2022/07/15 00:34:42;;;;;;;15.02;3.08;;;;;;;17.56;50.19;102342.91;5222783;28;20419;-46
2022/07/15 00:37:16;;;;;;;7.63;2.08;;;;;;;17.50;50.32;102337.25;5220003;28;20845;-46
2022/07/15 00:39:49;;;;;;;9.88;2.40;;;;;;;17.46;50.26;102329.69;5219143;28;20969;-48
2022/07/15 00:45:11;;;;;;;8.67;1.87;;;;;;;17.44;50.27;102326.34;5217310;28;20404;-48
2022/07/15 00:47:45;;;;;;;8.90;1.80;;;;;;;17.42;50.34;102328.34;5218731;28;20499;-50
2022/07/15 00:50:19;;;;;;;9.07;2.03;;;;;;;17.22;50.65;102306.38;5218449;28;20795;-48
2022/07/15 00:52:56;;;;;;;8.00;2.30;;;;;;;17.38;50.54;102330.50;5205060;28;20428;-48
2022/07/15 00:55:31;;;;;;;10.13;2.55;;;;;;;17.36;50.52;102323.63;5206679;28;20413;-44
2022/07/15 00:58:06;;;;;;;13.65;2.15;;;;;;;17.34;50.64;102326.44;5213783;28;20425;-45
2022/07/15 01:00:38;;;;;;;9.82;1.95;;;;;;;17.26;50.66;102313.06;5216279;28;20903;-47
2022/07/15 01:03:11;;;;;;;7.03;1.77;;;;;;;17.29;50.65;102324.25;5219006;28;20490;-45
2022/07/15 01:05:44;;;;;;;5.53;1.65;;;;;;;17.09;50.67;102295.25;5221639;28;20471;-48
2022/07/15 01:08:18;;;;;;;7.60;1.90;;;;;;;17.24;50.69;102325.72;5219724;28;20432;-45
2022/07/15 01:10:51;;;;;;;8.55;2.20;;;;;;;17.22;50.70;102322.41;5219308;28;20452;-47
2022/07/15 01:13:24;;;;;;;7.15;2.13;;;;;;;17.20;50.86;102329.72;5216892;28;20508;-50
2022/07/15 01:15:57;;;;;;;10.15;2.33;;;;;;;17.18;50.81;102324.50;5217237;28;20937;-50
2022/07/15 01:18:29;;;;;;;11.38;2.75;;;;;;;17.11;50.94;102314.63;5217653;28;20587;-48
2022/07/15 01:21:03;;;;;;;8.80;2.35;;;;;;;17.14;50.87;102325.00;5216278;28;20484;-46
2022/07/15 01:23:36;;;;;;;5.93;1.83;;;;;;;16.79;50.92;102273.38;5216942;28;20418;-48
2022/07/15 01:26:08;;;;;;;6.25;2.00;;;;;;;17.10;50.99;102323.66;5218611;28;20419;-47
2022/07/15 01:28:41;;;;;;;7.13;2.08;;;;;;;17.08;51.12;102336.31;5217833;28;20413;-48
2022/07/15 01:31:14;;;;;;;17.87;2.20;;;;;;;16.98;51.08;102323.06;5221938;28;20807;-50
2022/07/15 01:33:46;;;;;;;8.33;1.80;;;;;;;17.01;51.02;102336.94;5217024;28;20409;-47
2022/07/15 01:36:20;;;;;;;7.90;1.80;;;;;;;16.99;51.20;102335.41;5216740;28;20894;-45
2022/07/15 01:38:52;;;;;;;6.75;1.85;;;;;;;16.96;51.20;102331.19;5220937;28;20420;-45
2022/07/15 01:41:28;;;;;;;5.47;1.85;;;;;;;16.90;51.32;102331.00;5216342;28;21043;-47
2022/07/15 01:44:00;;;;;;;5.72;1.63;;;;;;;16.84;51.33;102327.09;5216011;28;20419;-49
2022/07/15 01:46:32;;;;;;;5.47;1.60;;;;;;;16.78;51.35;102317.88;5222446;28;20410;-47
2022/07/15 01:49:25;;;;;;;3.78;1.60;;;;;;;16.80;51.46;102317.75;5218815;28;20418;-46
2022/07/15 01:52:02;;;;;;;11.50;2.03;;;;;;;16.80;51.44;102329.25;5219184;28;20419;-46
2022/07/15 01:54:34;;;;;;;5.75;1.90;;;;;;;16.80;51.26;102333.75;5212987;28;20432;-47
2022/07/15 01:57:07;;;;;;;6.60;1.88;;;;;;;16.77;51.39;102339.41;5221276;28;20426;-48
2022/07/15 01:59:39;;;;;;;8.38;1.90;;;;;;;16.72;51.48;102336.31;5217836;28;20447;-47
2022/07/15 02:02:12;;;;;;;7.38;1.58;;;;;;;16.71;51.52;102335.47;5219515;28;20761;-46
2022/07/15 02:04:44;;;;;;;8.68;2.50;;;;;;;16.56;51.62;102316.50;5218458;28;20447;-45
2022/07/15 02:07:18;;;;;;;6.25;1.55;;;;;;;16.58;51.64;102325.19;5208333;28;20958;-47
2022/07/15 02:09:50;;;;;;;6.97;1.95;;;;;;;16.52;51.70;102311.63;5219682;28;20516;-44
2022/07/15 02:12:22;;;;;;;5.13;1.70;;;;;;;16.53;51.70;102319.47;5215840;28;20506;-45
2022/07/15 02:14:55;;;;;;;6.90;1.83;;;;;;;16.53;51.75;102316.81;5207354;28;20502;-44
2022/07/15 02:17:27;;;;;;;6.07;1.50;;;;;;;16.34;51.87;102301.78;5217580;28;21085;-46
2022/07/15 02:20:00;;;;;;;10.90;2.45;;;;;;;16.50;51.68;102332.28;5220224;28;20516;-45
2022/07/15 02:22:34;;;;;;;9.45;1.90;;;;;;;16.50;51.68;102326.94;5217631;28;20446;-46
2022/07/15 02:25:07;;;;;;;7.53;1.40;;;;;;;16.42;51.77;102309.06;5215382;28;20410;-47
2022/07/15 02:27:41;;;;;;;7.57;2.15;;;;;;;16.48;51.68;102324.44;5219375;28;20422;-45
2022/07/15 02:30:14;;;;;;;7.82;1.70;;;;;;;16.41;51.70;102318.03;5220224;28;20423;-46
2022/07/15 02:32:46;;;;;;;5.25;1.60;;;;;;;16.37;51.76;102325.50;5222995;28;20508;-47
2022/07/15 02:35:18;;;;;;;3.38;1.42;;;;;;;16.28;51.79;102312.22;5221764;28;20846;-46
2022/07/15 02:37:52;;;;;;;7.20;2.22;;;;;;;16.37;51.70;102333.50;5223752;28;20506;-45
2022/07/15 02:40:25;;;;;;;7.15;1.88;;;;;;;16.22;51.97;102318.16;5211427;28;20530;-45
2022/07/15 02:43:00;;;;;;;8.18;2.08;;;;;;;16.31;51.99;102334.09;5226808;28;20407;-45
2022/07/15 02:45:36;;;;;;;6.22;1.80;;;;;;;16.22;51.89;102320.84;5221227;28;20473;-44
2022/07/15 02:48:09;;;;;;;7.28;1.80;;;;;;;16.22;51.88;102323.50;5217722;28;20515;-45
2022/07/15 02:50:41;;;;;;;7.13;1.92;;;;;;;16.24;51.97;102332.19;5220303;28;20494;-45
2022/07/15 02:53:16;;;;;;;10.40;2.08;;;;;;;16.21;52.00;102328.00;5223411;28;20411;-46
2022/07/15 02:55:49;;;;;;;6.95;1.80;;;;;;;15.95;51.98;102295.06;5218921;28;20491;-49
2022/07/15 02:58:22;;;;;;;8.63;1.80;;;;;;;16.11;52.02;102325.41;5224460;28;20416;-46
2022/07/15 03:00:54;;;;;;;6.47;1.73;;;;;;;16.08;52.18;102323.03;5207800;28;20515;-51
2022/07/15 03:03:28;;;;;;;8.27;2.13;;;;;;;16.12;52.12;102334.22;5221238;28;20486;-45
2022/07/15 03:06:01;;;;;;;9.90;1.92;;;;;;;16.05;52.19;102328.66;5222128;28;20748;-47
2022/07/15 03:08:34;;;;;;;7.22;1.95;;;;;;;16.07;52.31;102353.34;5221725;28;20412;-49
2022/07/15 03:11:07;;;;;;;9.52;2.10;;;;;;;15.92;52.37;102328.19;5218505;28;20903;-49
2022/07/15 03:13:39;;;;;;;4.35;1.90;;;;;;;16.00;52.36;102348.75;5223206;28;20456;-45
2022/07/15 03:16:12;;;;;;;6.68;1.85;;;;;;;15.95;52.47;102349.19;5218611;28;20485;-48
2022/07/15 03:18:44;;;;;;;5.95;2.35;;;;;;;15.98;52.58;102362.22;5219745;28;20880;-45
2022/07/15 03:21:16;;;;;;;6.78;1.58;;;;;;;15.95;52.63;102361.66;5220680;28;20431;-48
2022/07/15 03:23:50;;;;;;;4.85;1.83;;;;;;;15.86;52.61;102350.09;5221569;28;20966;-49
2022/07/15 03:26:22;;;;;;;12.27;2.20;;;;;;;15.89;52.71;102365.78;5223902;28;20413;-45
2022/07/15 03:28:55;;;;;;;7.97;2.37;;;;;;;15.80;52.87;102350.69;5221252;28;20783;-49
2022/07/15 03:31:27;;;;;;;9.35;1.70;;;;;;;15.80;52.75;102361.34;5218390;28;20396;-50
2022/07/15 03:34:00;;;;;;;7.55;1.77;;;;;;;15.83;52.91;102369.03;5222776;28;20403;-48
2022/07/15 03:36:32;;;;;;;7.00;1.88;;;;;;;15.80;52.93;102372.00;5220774;28;20888;-49
2022/07/15 03:39:06;;;;;;;7.70;2.22;;;;;;;15.77;53.09;102372.28;5219775;28;20500;-48
2022/07/15 03:41:40;;;;;;;6.10;1.42;;;;;;;15.76;53.06;102371.41;5218543;28;20490;-48
2022/07/15 03:44:13;;;;;;;6.22;1.70;;;;;;;15.74;53.29;102373.41;5221361;28;20415;-46
2022/07/15 03:46:46;;;;;;;6.25;1.50;;;;;;;15.66;53.16;102370.59;5223093;28;20435;-50
2022/07/15 03:49:18;;;;;;;7.53;1.80;;;;;;;15.73;53.23;102370.88;5218943;28;20845;-44
2022/07/15 03:51:50;;;;;;;4.93;1.63;;;;;;;15.70;53.43;102368.50;5221244;28;20446;-45
2022/07/15 03:54:24;;;;;;;6.17;1.87;;;;;;;15.72;53.36;102379.88;5223830;28;20423;-46
2022/07/15 03:56:57;;;;;;;6.55;2.00;;;;;;;15.71;53.40;102378.19;5220218;28;20426;-47
2022/07/15 03:59:29;;;;;;;8.45;1.98;;;;;;;15.63;53.53;102369.06;5222378;28;20489;-45
2022/07/15 04:02:04;;;;;;;4.30;1.80;;;;;;;15.57;53.58;102366.13;5217357;28;20444;-44
2022/07/15 04:04:37;;;;;;;6.97;2.17;;;;;;;15.70;53.58;102387.16;5217535;28;20404;-44
2022/07/15 04:07:09;;;;;;;7.32;1.35;;;;;;;15.57;53.70;102360.81;5220165;28;20531;-45
2022/07/15 04:09:43;;;;;;;5.78;1.98;;;;;;;15.60;53.64;102372.00;5220386;28;20555;-47
2022/07/15 04:12:15;;;;;;;7.23;2.10;;;;;;;15.71;53.82;102391.50;5220169;28;20432;-47
2022/07/15 04:14:48;;;;;;;7.13;2.50;;;;;;;15.58;53.86;102367.84;5214531;28;20428;-44
2022/07/15 04:17:21;;;;;;;8.18;2.30;;;;;;;15.68;53.77;102389.97;5218623;28;20408;-46
2022/07/15 04:19:53;;;;;;;9.20;2.27;;;;;;;15.68;53.91;102390.81;5220941;28;20477;-45
2022/07/15 04:22:25;;;;;;;6.00;2.57;;;;;;;15.73;53.91;102394.84;5220428;28;20495;-45
2022/07/15 04:24:59;;;;;;;7.87;1.90;;;;;;;15.73;54.08;102395.69;5220366;28;20414;-45
2022/07/15 04:27:31;;;;;;;5.50;2.28;;;;;;;15.75;54.07;102391.06;5229978;28;20499;-48
2022/07/15 04:30:06;;;;;;;8.43;2.38;;;;;;;15.75;54.08;102396.38;5227559;28;20728;-40
2022/07/15 04:32:39;;;;;;;7.88;2.03;;;;;;;15.80;54.15;102395.97;5229183;28;20446;-46
2022/07/15 04:35:11;;;;;;;8.00;2.00;;;;;;;15.78;54.11;102397.94;5228581;28;20439;-46
2022/07/15 04:37:43;;;;;;;11.57;3.03;;;;;;;15.73;54.39;102392.19;5226176;28;20414;-45
2022/07/15 04:40:17;;;;;;;6.70;1.98;;;;;;;15.85;54.20;102407.00;5228484;28;20422;-47
2022/07/15 04:42:50;;;;;;;6.68;2.10;;;;;;;15.82;54.29;102396.63;5213615;28;20412;-50
2022/07/15 04:45:22;;;;;;;12.40;2.47;;;;;;;15.89;54.02;102408.41;5201037;28;20410;-44
2022/07/15 04:47:55;;;;;;;8.07;2.25;;;;;;;15.87;54.31;102399.72;5227768;28;20416;-46
2022/07/15 04:53:17;;;;;;;9.40;2.77;;;;;;;15.98;54.46;102412.00;5226492;28;20412;-45
2022/07/15 04:55:51;;;;;;;11.93;3.22;;;;;;;16.02;54.48;102408.06;5225907;28;20431;-45
2022/07/15 04:58:23;;;;;;;10.73;2.67;;;;;;;16.10;54.50;102417.00;5228835;28;20411;-47
2022/07/15 05:00:56;;;;;;;9.63;4.03;;;;;;;16.12;54.56;102409.69;5226395;28;20480;-50
2022/07/15 05:03:28;;;;;;;10.68;3.35;;;;;;;16.12;54.47;102399.03;5228904;28;20820;-46
2022/07/15 05:06:02;;;;;;;11.18;3.40;;;;;;;16.26;54.62;102411.03;5228829;28;20868;-46
2022/07/15 05:08:35;;;;;;;11.13;3.25;;;;;;;16.31;54.55;102408.75;5228488;28;20808;-44
2022/07/15 05:11:08;;;;;;;12.68;4.00;;;;;;;16.38;54.54;102411.66;5225061;28;20414;-46
2022/07/15 05:13:41;;;;;;;11.83;3.47;;;;;;;16.43;54.56;102403.22;5229839;28;20507;-50
2022/07/15 05:16:13;;;;;;;12.23;3.80;;;;;;;16.49;54.57;102405.28;5227783;28;20473;-49
2022/07/15 05:18:45;;;;;;;13.13;3.07;;;;;;;16.55;54.60;102408.19;5224897;28;20422;-47
2022/07/15 05:21:18;;;;;;;9.57;2.58;;;;;;;17.22;53.89;102402.50;5229114;28;20763;-45
2022/07/15 05:23:51;;;;;;;9.23;2.67;;;;;;;18.95;52.29;102399.53;5229659;28;20412;-46
2022/07/15 05:26:24;;;;;;;8.02;2.60;;;;;;;20.88;50.18;102399.22;5226435;28;20522;-46
2022/07/15 05:28:57;;;;;;;8.38;1.58;;;;;;;22.69;48.23;102391.56;5228573;28;20407;-50
2022/07/15 05:31:29;;;;;;;7.82;1.85;;;;;;;24.32;46.58;102390.38;5229612;28;20847;-54
2022/07/15 05:34:02;;;;;;;7.57;2.05;;;;;;;25.83;44.57;102386.22;5230777;28;20407;-51
2022/07/15 05:36:34;;;;;;;7.55;1.90;;;;;;;27.24;42.93;102382.41;5227073;28;20422;-42
2022/07/15 05:39:07;;;;;;;6.40;1.38;;;;;;;28.53;41.50;102398.66;5214235;28;20430;-48
2022/07/15 05:41:41;;;;;;;9.43;1.83;;;;;;;29.58;40.00;102379.66;5211196;28;20422;-52
2022/07/15 05:44:13;;;;;;;6.95;1.42;;;;;;;30.52;38.64;102378.50;5229150;28;20435;-51
2022/07/15 05:46:45;;;;;;;7.03;1.35;;;;;;;31.42;37.41;102387.56;5225980;28;20495;-48
2022/07/15 05:49:18;;;;;;;9.75;1.80;;;;;;;32.26;36.15;102386.38;5228514;28;20450;-52
2022/07/15 05:51:50;;;;;;;6.25;1.50;;;;;;;33.03;35.35;102390.63;5227552;28;20537;-50
2022/07/15 05:54:23;;;;;;;6.60;1.38;;;;;;;33.76;34.37;102390.75;5228412;28;20412;-52
2022/07/15 05:56:58;;;;;;;6.07;1.40;;;;;;;34.38;33.10;102394.50;5229319;28;20400;-53
2022/07/15 05:59:31;;;;;;;3.75;1.20;;;;;;;34.87;32.50;102386.53;5219016;28;20803;-52
2022/07/15 06:02:03;;;;;;;4.10;1.13;;;;;;;35.36;31.95;102387.00;5224836;28;20412;-49
2022/07/15 06:04:36;;;;;;;4.80;0.98;;;;;;;35.76;30.93;102367.59;5219719;28;20401;-50
2022/07/15 06:07:08;;;;;;;6.18;1.35;;;;;;;36.35;30.20;102392.53;5210526;28;20497;-51
2022/07/15 06:09:41;;;;;;;8.20;1.10;;;;;;;36.66;29.80;102382.94;5220893;28;20933;-51
2022/07/15 06:12:15;;;;;;;4.00;1.00;;;;;;;37.00;29.36;102382.09;5223382;28;20813;-49
2022/07/15 06:14:47;;;;;;;7.80;0.90;;;;;;;37.19;28.93;102378.56;5222689;28;20940;-52
2022/07/15 06:17:19;;;;;;;4.32;1.02;;;;;;;37.06;28.53;102334.09;5228399;28;20499;-53
2022/07/15 06:19:52;;;;;;;4.50;0.80;;;;;;;37.52;28.13;102383.16;5214840;28;20427;-50
2022/07/15 06:22:24;;;;;;;5.13;1.25;;;;;;;37.77;27.75;102389.44;5229422;28;22215;-53
2022/07/15 06:24:57;;;;;;;2.42;0.75;;;;;;;38.09;27.15;102393.41;5228737;28;20419;-52
2022/07/15 06:27:32;;;;;;;4.85;1.05;;;;;;;38.37;26.67;102380.53;5209892;28;20421;-51
2022/07/15 06:30:07;;;;;;;5.25;0.73;;;;;;;38.73;26.26;102395.38;5209646;28;20482;-50
2022/07/15 06:32:39;;;;;;;3.08;0.80;;;;;;;38.90;26.03;102383.81;5212074;28;20412;-54
2022/07/15 06:35:12;;;;;;;2.65;0.88;;;;;;;39.13;25.72;102392.19;5220983;28;20505;-51
2022/07/15 06:37:44;;;;;;;6.55;1.00;;;;;;;39.32;25.39;102392.94;5200874;28;20420;-54
2022/07/15 06:40:16;;;;;;;3.97;0.90;;;;;;;39.51;25.05;102395.56;5215194;28;20502;-52
2022/07/15 06:42:50;;;;;;;3.47;0.90;;;;;;;39.69;24.81;102385.50;5210223;28;20417;-54
2022/07/15 06:45:23;;;;;;;11.27;1.00;;;;;;;39.90;24.47;102402.50;5209208;28;20522;-53
2022/07/15 06:47:55;;;;;;;3.65;0.88;;;;;;;39.83;24.32;102366.97;5220763;28;20923;-51
2022/07/15 06:50:28;;;;;;;5.20;1.10;;;;;;;40.16;24.15;102402.69;5224044;28;20496;-50
2022/07/15 06:53:02;;;;;;;2.58;0.80;;;;;;;40.26;23.78;102396.13;5221704;28;20412;-55
2022/07/15 06:55:34;;;;;;;3.90;0.65;;;;;;;40.37;23.72;102397.50;5220753;28;20427;-53
2022/07/15 06:58:08;;;;;;;3.22;0.60;;;;;;;40.41;23.56;102394.91;5219352;28;20720;-54
2022/07/15 07:00:40;;;;;;;3.30;0.52;;;;;;;40.49;23.37;102394.16;5218485;28;20513;-54
2022/07/15 07:03:12;;;;;;;2.17;0.70;;;;;;;40.54;23.32;102402.31;5222783;28;20412;-55
2022/07/15 07:05:45;;;;;;;3.38;0.98;;;;;;;40.58;23.16;102389.50;5219278;28;20419;-50
2022/07/15 07:08:17;;;;;;;2.85;0.63;;;;;;;40.59;23.05;102393.91;5219160;28;20836;-54
2022/07/15 07:10:50;;;;;;;2.38;0.60;;;;;;;40.56;22.85;102405.59;5219080;28;21902;-51
2022/07/15 07:13:24;;;;;;;3.85;0.70;;;;;;;40.46;22.95;102406.69;5215736;28;20514;-54
2022/07/15 07:15:56;;;;;;;5.10;0.80;;;;;;;40.24;23.00;102410.28;5220714;28;20404;-55
2022/07/15 07:18:29;;;;;;;5.63;0.63;;;;;;;40.02;23.06;102396.41;5228235;28;20412;-54
2022/07/15 07:21:01;;;;;;;2.80;0.70;;;;;;;39.92;23.06;102402.16;5221266;28;20883;-52
2022/07/15 07:23:34;;;;;;;3.13;0.95;;;;;;;39.75;23.08;102409.19;5219267;28;20476;-53
2022/07/15 07:26:06;;;;;;;3.05;0.80;;;;;;;39.58;23.20;102403.44;5221572;28;20481;-52
2022/07/15 07:28:40;;;;;;;2.13;0.60;;;;;;;39.52;22.95;102401.91;5221157;28;20488;-52
2022/07/15 07:31:14;;;;;;;5.47;0.80;;;;;;;39.07;23.18;102410.00;5226026;28;21071;-53
2022/07/15 07:33:47;;;;;;;3.70;0.50;;;;;;;38.15;23.51;102406.00;5221785;28;20412;-52
2022/07/15 07:36:20;;;;;;;2.28;0.60;;;;;;;37.20;23.94;102407.75;5225363;28;20507;-51
2022/07/15 07:38:52;;;;;;;2.50;0.60;;;;;;;36.14;23.92;102387.16;5226577;28;20423;-51
2022/07/15 07:41:25;;;;;;;2.77;0.83;;;;;;;35.48;24.28;102401.22;5209261;28;20502;-53
2022/07/15 07:43:59;;;;;;;3.58;0.70;;;;;;;35.12;24.83;102393.09;5204844;28;20412;-55
2022/07/15 07:46:31;;;;;;;3.67;0.40;;;;;;;34.97;24.64;102385.69;5203261;28;20897;-54
2022/07/15 07:49:04;;;;;;;4.55;0.55;;;;;;;35.01;24.32;102385.97;5199935;28;20475;-51
2022/07/15 07:51:37;;;;;;;2.40;0.70;;;;;;;34.77;24.32;102388.47;5203187;28;20423;-50
2022/07/15 07:54:10;;;;;;;2.55;0.63;;;;;;;34.40;24.31;102390.34;5201545;28;20510;-52
2022/07/15 07:57:27;;;;;;;2.45;0.57;;;;;;;33.91;24.64;102393.56;5204307;28;20856;-49
2022/07/15 08:00:01;;;;;;;3.13;0.77;;;;;;;33.32;24.86;102404.75;5205670;28;20902;-53
2022/07/15 08:02:33;;;;;;;1.70;0.55;;;;;;;32.83;25.16;102402.25;5208344;28;20449;-49
2022/07/15 08:05:08;;;;;;;3.03;0.50;;;;;;;32.18;25.29;102384.09;5208073;28;20414;-48
2022/07/15 08:07:40;;;;;;;3.03;0.40;;;;;;;31.89;25.31;102417.97;5209801;28;20413;-54
2022/07/15 08:10:14;;;;;;;3.10;0.80;;;;;;;31.57;25.80;102406.88;5208166;28;20493;-52
2022/07/15 08:12:47;;;;;;;2.30;0.50;;;;;;;31.27;25.83;102406.44;5209394;28;20508;-51
2022/07/15 08:15:20;;;;;;;1.50;0.50;;;;;;;30.91;25.96;102398.56;5200217;28;20931;-50
2022/07/15 08:17:53;;;;;;;2.15;0.65;;;;;;;30.78;26.27;102398.88;5195706;28;20427;-51
2022/07/15 08:20:25;;;;;;;1.50;0.50;;;;;;;30.72;26.31;102399.81;5192115;28;20461;-53
2022/07/15 08:23:01;;;;;;;3.05;0.57;;;;;;;30.79;26.25;102403.25;5192903;28;20411;-52
2022/07/15 08:25:36;;;;;;;3.92;0.70;;;;;;;30.89;26.08;102397.13;5187375;28;20992;-49
2022/07/15 08:28:09;;;;;;;2.55;0.77;;;;;;;30.92;26.07;102400.19;5186780;28;20462;-53
2022/07/15 08:30:42;;;;;;;3.50;0.60;;;;;;;30.92;26.10;102399.38;5185283;28;20407;-53
2022/07/15 08:33:15;;;;;;;1.58;0.60;;;;;;;30.88;25.96;102398.22;5187130;28;20517;-53
2022/07/15 08:35:47;;;;;;;3.27;0.77;;;;;;;30.78;26.07;102405.16;5190248;28;20498;-50
2022/07/15 08:38:20;;;;;;;3.80;0.60;;;;;;;30.51;26.23;102382.31;5186594;28;20419;-52
2022/07/15 08:40:52;;;;;;;2.92;1.00;;;;;;;30.45;26.44;102399.66;5195760;28;20501;-50
2022/07/15 08:43:27;;;;;;;4.97;1.08;;;;;;;30.18;26.54;102378.41;5208950;28;20491;-51
2022/07/15 08:46:01;;;;;;;2.90;1.17;;;;;;;30.19;26.68;102415.47;5206568;28;20485;-52
2022/07/15 08:48:38;;;;;;;8.82;1.00;;;;;;;29.99;26.77;102405.03;5207230;28;20544;-49
2022/07/15 08:51:10;;;;;;;6.20;0.70;;;;;;;29.74;26.73;102404.53;5203628;28;20428;-50
2022/07/15 08:53:43;;;;;;;1.95;0.80;;;;;;;29.49;27.02;102402.06;5205997;28;20960;-49
2022/07/15 08:56:19;;;;;;;4.43;0.98;;;;;;;29.44;27.24;102410.09;5206387;28;20471;-52
2022/07/15 08:58:51;;;;;;;3.33;0.60;;;;;;;29.49;27.02;102396.59;5206228;28;20927;-50
2022/07/15 09:01:25;;;;;;;1.75;0.50;;;;;;;29.63;27.06;102400.75;5206021;28;20488;-50
2022/07/15 09:03:58;;;;;;;1.67;0.50;;;;;;;29.67;27.02;102396.50;5205014;28;20428;-51
2022/07/15 09:06:40;;;;;;;1.00;0.47;;;;;;;29.84;27.04;102383.75;5214012;28;21522;-48
2022/07/15 09:09:30;;;;;;;2.97;0.70;;;;;;;30.00;26.86;102393.06;5206710;28;20689;-48
2022/07/15 09:12:06;;;;;;;0.70;0.20;;;;;;;30.10;26.74;102392.41;5212857;28;20417;-52
2022/07/15 09:14:42;;;;;;;0.68;0.30;;;;;;;30.16;26.59;102402.34;5207722;28;20405;-51
2022/07/15 09:17:24;;;;;;;3.17;0.20;;;;;;;29.77;26.52;102342.22;5209354;28;20420;-50
2022/07/15 09:20:09;;;;;;;2.70;0.20;;;;;;;30.11;26.46;102383.19;5213037;28;20751;-50
2022/07/15 09:22:53;;;;;;;1.90;0.22;;;;;;;29.98;26.53;102375.28;5207494;28;20437;-51
2022/07/15 09:25:27;;;;;;;0.57;0.15;;;;;;;30.13;26.39;102380.22;5213408;28;20958;-51
2022/07/15 09:28:01;;;;;;;0.52;0.20;;;;;;;30.22;26.38;102385.06;5213510;28;20490;-47
2022/07/15 09:33:38;;;;;;;1.70;0.43;;;;;;;30.26;26.18;102380.78;5208393;28;20452;-49
2022/07/15 09:36:18;;;;;;;1.27;0.30;;;;;;;30.19;26.18;102371.88;5207884;28;20405;-49
2022/07/15 09:38:53;;;;;;;1.13;0.20;;;;;;;30.13;26.35;102372.84;5211468;28;20412;-51
2022/07/15 09:41:32;;;;;;;1.30;0.20;;;;;;;30.09;26.32;102374.44;5212682;28;20421;-48
2022/07/15 09:44:07;;;;;;;0.90;0.30;;;;;;;29.91;26.20;102361.00;5216727;28;20419;-47
2022/07/15 09:46:47;;;;;;;2.10;0.13;;;;;;;30.03;26.33;102380.84;5218063;28;20413;-50
2022/07/15 09:49:34;;;;;;;1.17;0.40;;;;;;;30.02;26.29;102385.47;5215443;28;20421;-50
2022/07/15 09:52:09;;;;;;;2.08;0.50;;;;;;;29.99;26.18;102379.69;5207938;28;20440;-50
2022/07/15 09:54:46;;;;;;;1.70;0.35;;;;;;;29.80;26.39;102379.88;5211026;28;20706;-50
2022/07/15 09:57:21;;;;;;;3.77;0.43;;;;;;;29.64;26.52;102376.00;5213433;28;20771;-51
2022/07/15 09:59:54;;;;;;;2.67;0.60;;;;;;;29.66;26.63;102389.38;5207789;28;20417;-52
2022/07/15 10:02:27;;;;;;;0.60;0.20;;;;;;;29.55;26.55;102373.88;5210776;28;20531;-50
2022/07/15 10:05:01;;;;;;;2.47;0.40;;;;;;;29.53;26.61;102386.88;5211147;28;20419;-48
2022/07/15 10:07:34;;;;;;;5.40;0.40;;;;;;;29.62;26.63;102374.59;5215345;28;20504;-50
2022/07/15 10:10:08;;;;;;;1.60;0.40;;;;;;;29.72;26.55;102363.91;5208934;28;20413;-46
2022/07/15 10:12:56;;;;;;;2.80;0.60;;;;;;;29.86;26.42;102369.91;5211397;28;20521;-49
2022/07/15 10:15:43;;;;;;;1.40;0.40;;;;;;;29.88;26.41;102375.94;5210528;28;20386;-49
2022/07/15 10:18:44;;;;;;;3.35;0.38;;;;;;;29.94;26.26;102376.84;5208969;28;20493;-50
2022/07/15 10:21:31;;;;;;;0.65;0.40;;;;;;;30.01;26.32;102372.09;5213082;28;20408;-50
2022/07/15 10:24:43;;;;;;;1.67;0.52;;;;;;;29.93;26.23;102364.31;5213678;28;20413;-48
2022/07/15 10:27:46;;;;;;;1.42;0.30;;;;;;;30.00;26.37;102348.66;5216393;28;20797;-48
2022/07/15 10:30:22;;;;;;;0.70;0.40;;;;;;;30.15;26.38;102346.19;5216971;28;20476;-50
2022/07/15 10:33:16;;;;;;;1.35;0.60;;;;;;;30.20;26.37;102342.78;5213741;28;20416;-49
2022/07/15 10:35:51;;;;;;;2.63;0.50;;;;;;;30.27;26.29;102343.44;5207749;28;20887;-47
2022/07/15 10:38:31;;;;;;;2.42;0.55;;;;;;;30.40;26.15;102347.75;5212027;28;20481;-53
2022/07/15 10:41:08;;;;;;;3.70;0.83;;;;;;;30.43;26.27;102347.28;5208939;28;20409;-50
2022/07/15 10:43:49;;;;;;;1.10;0.53;;;;;;;30.31;26.31;102323.63;5205713;28;20935;-52
2022/07/15 10:46:28;;;;;;;2.05;0.50;;;;;;;30.54;26.23;102349.09;5209487;28;20509;-51
2022/07/15 10:49:30;;;;;;;3.25;1.10;;;;;;;30.54;26.40;102343.66;5224747;28;20498;-46
2022/07/15 10:52:14;;;;;;;2.72;0.93;;;;;;;30.52;26.48;102354.78;5226412;28;20406;-49
2022/07/15 10:55:00;;;;;;;1.88;0.55;;;;;;;30.52;26.55;102345.78;5220232;28;20421;-50
2022/07/15 10:57:54;;;;;;;1.50;0.55;;;;;;;30.52;26.58;102345.78;5222508;28;20486;-48
2022/07/15 11:00:32;;;;;;;1.70;0.47;;;;;;;30.50;26.63;102347.94;5219490;28;20412;-52
2022/07/15 11:03:11;;;;;;;2.08;0.75;;;;;;;30.39;26.80;102351.56;5222130;28;20411;-50
2022/07/15 11:06:06;;;;;;;2.97;0.65;;;;;;;30.27;27.06;102344.28;5218576;28;20913;-50
2022/07/15 11:08:51;;;;;;;1.60;0.40;;;;;;;30.19;27.01;102349.25;5219960;28;20408;-48
2022/07/15 11:11:52;;;;;;;1.92;0.50;;;;;;;30.04;27.21;102344.34;5219129;28;20803;-51
2022/07/15 11:14:47;;;;;;;3.72;0.80;;;;;;;29.98;27.52;102350.78;5213093;28;20519;-50
2022/07/15 11:17:24;;;;;;;3.38;0.60;;;;;;;29.92;27.55;102349.88;5219900;28;20403;-50
2022/07/15 11:19:59;;;;;;;1.42;0.85;;;;;;;29.82;27.78;102347.78;5224442;28;20900;-49
2022/07/15 11:22:31;;;;;;;2.83;0.83;;;;;;;29.77;27.93;102334.06;5220107;28;20874;-51
2022/07/15 11:25:06;;;;;;;2.65;0.65;;;;;;;29.63;27.93;102317.16;5224873;28;21134;-51
2022/07/15 11:27:40;;;;;;;2.28;0.77;;;;;;;29.85;28.05;102330.09;5217471;28;20415;-52
2022/07/15 11:30:13;;;;;;;2.50;0.93;;;;;;;30.00;27.89;102332.31;5220525;28;20559;-51
2022/07/15 11:32:46;;;;;;;3.70;1.10;;;;;;;29.99;27.89;102317.03;5219750;28;20423;-51
2022/07/15 11:35:19;;;;;;;2.92;1.00;;;;;;;30.25;27.77;102335.50;5219972;28;20988;-51
2022/07/15 11:37:59;;;;;;;1.80;0.85;;;;;;;30.32;27.65;102329.94;5218871;28;20413;-50
2022/07/15 11:46:15;;;;;;;1.95;0.47;;;;;;;30.20;27.71;102283.66;5217274;28;20790;-47
2022/07/15 11:48:47;;;;;;;1.95;0.60;;;;;;;30.27;27.59;102289.78;5213837;28;20415;-51
2022/07/15 11:51:27;;;;;;;5.63;1.15;;;;;;;30.55;27.76;102326.22;5214813;28;20510;-45
2022/07/15 11:54:00;;;;;;;4.05;1.25;;;;;;;30.41;27.65;102322.16;5219369;28;20412;-48
2022/07/15 11:56:33;;;;;;;1.23;0.47;;;;;;;30.51;27.73;102322.34;5216647;28;20484;-48
2022/07/15 11:59:07;;;;;;;1.92;0.70;;;;;;;30.39;27.74;102319.69;5219077;28;20420;-48
2022/07/15 12:01:39;;;;;;;5.47;1.00;;;;;;;30.30;27.74;102316.53;5212892;28;20903;-47
2022/07/15 12:04:12;;;;;;;5.53;0.93;;;;;;;30.33;27.57;102315.22;5216296;28;20517;-47
2022/07/15 12:06:51;;;;;;;3.42;0.85;;;;;;;30.36;27.58;102313.91;5216268;28;20876;-48
2022/07/15 12:09:23;;;;;;;3.95;1.10;;;;;;;30.41;27.72;102328.41;5215565;28;20767;-48
2022/07/15 12:12:02;;;;;;;6.35;1.30;;;;;;;30.30;27.77;102294.72;5214437;28;20422;-48
2022/07/15 12:14:36;;;;;;;2.15;0.70;;;;;;;30.61;27.60;102314.31;5215182;28;20837;-45